Time;durP1;ratioP1;P1;durP2;ratioP2;P2;SDS_P1;SDS_P2;PMS_P1;PMS_P2;Temp;Humidity;BMP_temperature;BMP_pressure;BME280_temperature;BME280_humidity;BME280_pressure;Samples;Min_cycle;Max_cycle;Signal;HPM_P1;HPM_P2
2021/11/23 00:00:39;;;;;;;24.63;18.62;;;;;;;5.14;83.26;94637.80;1695550;83;20929;-56
2021/11/23 00:03:06;;;;;;;24.25;16.62;;;;;;;5.16;83.16;94635.42;1711667;83;21024;-55
2021/11/23 00:05:34;;;;;;;22.30;16.35;;;;;;;5.20;82.92;94636.15;1716809;83;21457;-55
2021/11/23 00:08:02;;;;;;;22.40;16.57;;;;;;;5.16;82.68;94640.88;1712551;83;21499;-55
2021/11/23 00:10:29;;;;;;;22.25;15.90;;;;;;;5.13;82.65;94643.07;1701016;83;21131;-54
2021/11/23 00:12:56;;;;;;;23.67;17.20;;;;;;;5.11;82.99;94652.87;1712970;83;21592;-55
2021/11/23 00:15:23;;;;;;;13.55;10.32;;;;;;;5.09;83.01;94657.94;1692693;83;21084;-55
2021/11/23 00:17:50;;;;;;;12.58;9.33;;;;;;;5.08;82.48;94660.48;1684038;83;21032;-55
2021/11/23 00:20:17;;;;;;;8.73;6.90;;;;;;;5.06;81.83;94662.28;1678289;83;21325;-55
2021/11/23 00:22:44;;;;;;;7.97;6.47;;;;;;;5.02;81.65;94660.78;1702305;83;21135;-55
2021/11/23 00:25:13;;;;;;;7.25;6.40;;;;;;;4.99;81.53;94661.00;1686325;83;21198;-56
2021/11/23 00:27:39;;;;;;;10.60;8.15;;;;;;;4.95;81.40;94652.73;1695587;83;20996;-56
2021/11/23 00:30:08;;;;;;;12.65;10.00;;;;;;;4.95;81.51;94664.99;1698610;83;21028;-56
2021/11/23 00:32:35;;;;;;;13.20;10.95;;;;;;;4.91;81.61;94667.77;1692749;83;20965;-55
2021/11/23 00:35:01;;;;;;;10.98;9.13;;;;;;;4.91;81.89;94669.12;1696434;83;21107;-55
2021/11/23 00:37:29;;;;;;;5.50;5.00;;;;;;;4.89;82.15;94676.16;1692832;83;21056;-54
2021/11/23 00:39:57;;;;;;;4.92;4.47;;;;;;;4.88;82.26;94667.23;1705985;83;21542;-55
2021/11/23 00:42:25;;;;;;;4.87;4.50;;;;;;;4.92;82.34;94669.30;1675387;83;21046;-55
2021/11/23 00:44:53;;;;;;;7.55;6.85;;;;;;;4.94;82.59;94673.00;1679792;84;20961;-56
2021/11/23 00:47:20;;;;;;;16.57;10.03;;;;;;;5.00;82.64;94672.09;1678453;83;21159;-56
2021/11/23 00:49:47;;;;;;;17.40;11.35;;;;;;;5.04;82.35;94676.92;1676468;84;21559;-55
2021/11/23 00:52:14;;;;;;;17.80;11.75;;;;;;;5.03;82.44;94682.19;1697884;83;20941;-55
2021/11/23 00:54:43;;;;;;;21.37;13.93;;;;;;;5.03;82.47;94693.67;1682032;83;21135;-56
2021/11/23 00:57:09;;;;;;;24.27;14.63;;;;;;;5.05;82.53;94691.30;1716115;83;21003;-54
2021/11/23 00:59:38;;;;;;;18.92;11.50;;;;;;;5.09;82.53;94692.02;1716709;83;21141;-55
2021/11/23 01:02:04;;;;;;;14.80;11.03;;;;;;;5.13;82.46;94694.11;1677496;83;21407;-55
2021/11/23 01:04:32;;;;;;;11.70;8.50;;;;;;;5.11;82.34;94699.97;1697630;83;21017;-55
2021/11/23 01:06:59;;;;;;;11.18;7.47;;;;;;;5.11;82.00;94697.24;1705581;84;21020;-54
2021/11/23 01:09:25;;;;;;;16.75;11.03;;;;;;;5.12;81.79;94693.33;1697046;83;21012;-56
2021/11/23 01:11:52;;;;;;;14.47;10.48;;;;;;;5.13;81.63;94694.88;1699900;83;21059;-56
2021/11/23 01:14:19;;;;;;;15.58;10.95;;;;;;;5.13;81.86;94696.84;1709390;83;21005;-55
2021/11/23 01:16:47;;;;;;;11.28;9.18;;;;;;;5.18;81.86;94701.21;1664345;83;21254;-55
2021/11/23 01:19:18;;;;;;;11.33;9.25;;;;;;;5.18;81.58;94694.39;1647432;85;21117;-55
2021/11/23 01:21:44;;;;;;;13.43;10.63;;;;;;;5.12;81.75;94694.70;1638677;86;21057;-54
2021/11/23 01:24:12;;;;;;;15.03;10.32;;;;;;;5.06;81.64;94703.17;1682794;83;21835;-54
2021/11/23 01:26:43;;;;;;;16.25;10.53;;;;;;;5.01;82.02;94706.95;1684543;83;21005;-54
2021/11/23 01:29:10;;;;;;;14.68;10.50;;;;;;;5.03;82.15;94703.21;1688586;83;21106;-54
2021/11/23 01:31:37;;;;;;;14.18;9.73;;;;;;;5.06;82.37;94707.84;1685657;83;20980;-54
2021/11/23 01:34:06;;;;;;;15.23;10.00;;;;;;;5.10;82.16;94713.42;1619976;85;21455;-54
2021/11/23 01:36:33;;;;;;;14.68;10.00;;;;;;;5.11;82.31;94703.30;1692672;84;21908;-55
2021/11/23 01:39:00;;;;;;;21.10;11.83;;;;;;;5.16;82.28;94713.13;1689855;85;21062;-55
2021/11/23 01:41:26;;;;;;;18.95;11.33;;;;;;;5.16;82.01;94714.48;1679410;84;21023;-54
2021/11/23 01:43:54;;;;;;;17.10;11.85;;;;;;;5.11;82.06;94712.84;1659374;85;21032;-54
2021/11/23 01:46:21;;;;;;;12.70;9.28;;;;;;;5.09;82.11;94716.55;1673976;84;20955;-55
2021/11/23 01:48:48;;;;;;;11.38;8.18;;;;;;;5.05;82.06;94715.26;1686347;84;21091;-55
2021/11/23 01:51:14;;;;;;;14.58;8.20;;;;;;;5.09;82.30;94715.19;1663675;84;20995;-55
2021/11/23 01:53:41;;;;;;;11.30;8.08;;;;;;;5.10;81.99;94713.42;1666320;84;20980;-55
2021/11/23 01:56:08;;;;;;;9.53;8.15;;;;;;;5.12;82.27;94717.11;1661003;85;21053;-55
2021/11/23 01:58:35;;;;;;;12.40;8.93;;;;;;;5.18;82.21;94710.00;1660839;85;21464;-55
2021/11/23 02:01:06;;;;;;;17.92;9.08;;;;;;;5.23;81.96;94713.03;1680905;83;22296;-56
2021/11/23 02:03:30;;;;;;;12.80;9.78;;;;;;;5.26;81.80;94712.20;1709778;83;20998;-55
2021/11/23 02:05:56;;;;;;;18.10;10.53;;;;;;;5.27;81.37;94713.74;1707283;83;21100;-55
2021/11/23 02:08:23;;;;;;;20.72;11.75;;;;;;;5.20;81.30;94712.50;1708756;83;21014;-54
2021/11/23 02:10:50;;;;;;;20.35;11.80;;;;;;;5.16;81.29;94713.13;1708009;83;20966;-56
2021/11/23 02:13:16;;;;;;;16.85;10.58;;;;;;;5.18;81.26;94718.18;1715610;83;21411;-55
2021/11/23 02:15:43;;;;;;;9.35;7.20;;;;;;;5.13;81.52;94719.41;1711207;82;20938;-55
2021/11/23 02:18:16;;;;;;;11.53;8.68;;;;;;;5.14;81.63;94725.04;1711292;83;21025;-56
2021/11/23 02:20:43;;;;;;;11.85;8.20;;;;;;;5.09;81.15;94721.42;1708048;83;21396;-55
2021/11/23 02:23:10;;;;;;;7.62;5.90;;;;;;;5.01;81.27;94728.15;1706262;83;21045;-55
2021/11/23 02:25:37;;;;;;;6.10;5.55;;;;;;;4.99;81.29;94730.52;1711294;83;21150;-55
2021/11/23 02:28:07;;;;;;;6.42;5.83;;;;;;;4.94;81.39;94740.53;1711478;83;20935;-55
2021/11/23 02:30:37;;;;;;;6.50;5.90;;;;;;;4.90;81.74;94734.94;1708079;83;20962;-56
2021/11/23 02:33:04;;;;;;;8.40;7.50;;;;;;;4.86;81.87;94737.73;1683079;83;21039;-54
2021/11/23 02:35:30;;;;;;;11.93;8.30;;;;;;;4.86;81.91;94735.59;1693290;83;21020;-55
2021/11/23 02:37:57;;;;;;;10.65;7.12;;;;;;;4.85;82.22;94732.68;1696982;83;21120;-55
2021/11/23 02:40:24;;;;;;;11.20;7.95;;;;;;;4.85;81.95;94744.37;1694248;83;21076;-55
2021/11/23 02:42:53;;;;;;;14.33;9.73;;;;;;;4.83;81.73;94741.86;1688935;83;20953;-55
2021/11/23 02:45:23;;;;;;;22.22;13.72;;;;;;;4.77;81.80;94744.88;1701318;83;21882;-55
2021/11/23 02:47:50;;;;;;;33.53;19.35;;;;;;;4.70;81.94;94744.38;1680920;83;21095;-55
2021/11/23 02:50:17;;;;;;;13.08;8.70;;;;;;;4.64;82.13;94748.72;1688094;83;21135;-55
2021/11/23 02:52:45;;;;;;;18.07;13.03;;;;;;;4.58;82.29;94751.72;1681075;83;21047;-54
2021/11/23 02:55:13;;;;;;;34.75;23.38;;;;;;;4.55;82.35;94755.27;1689012;83;20952;-54
2021/11/23 02:57:40;;;;;;;21.68;17.42;;;;;;;4.53;82.62;94756.84;1702079;83;21067;-56
2021/11/23 03:00:17;;;;;;;17.32;15.10;;;;;;;4.59;83.16;94762.80;1692640;83;21170;-56
2021/11/23 03:02:45;;;;;;;6.85;6.20;;;;;;;4.67;83.00;94754.73;1697591;82;21188;-55
2021/11/23 03:05:13;;;;;;;9.68;8.68;;;;;;;4.66;82.43;94764.09;1707157;83;21462;-54
2021/11/23 03:07:40;;;;;;;12.03;10.40;;;;;;;4.67;82.38;94760.18;1707371;83;21615;-56
2021/11/23 03:10:09;;;;;;;7.40;6.80;;;;;;;4.73;82.55;94755.02;1707583;83;20954;-57
2021/11/23 03:12:37;;;;;;;7.60;6.90;;;;;;;4.80;82.36;94759.80;1687598;83;21021;-54
2021/11/23 03:15:06;;;;;;;7.75;6.95;;;;;;;4.83;81.80;94756.25;1707270;83;21882;-56
2021/11/23 03:17:33;;;;;;;8.23;7.42;;;;;;;4.77;81.61;94757.14;1707203;83;20954;-56
2021/11/23 03:20:02;;;;;;;11.28;7.75;;;;;;;4.69;81.82;94763.27;1705768;82;21010;-55
2021/11/23 03:22:29;;;;;;;13.93;9.88;;;;;;;4.69;82.09;94760.55;1707689;83;21046;-54
2021/11/23 03:24:57;;;;;;;20.50;12.88;;;;;;;4.68;81.98;94768.53;1689649;83;20946;-55
2021/11/23 03:27:24;;;;;;;19.27;13.10;;;;;;;4.66;82.10;94764.09;1708207;83;21862;-54
2021/11/23 03:29:51;;;;;;;17.45;11.63;;;;;;;4.67;82.14;94772.44;1707844;83;20990;-55
2021/11/23 03:32:17;;;;;;;10.40;8.85;;;;;;;4.71;82.08;94769.08;1690577;83;21545;-56
2021/11/23 03:34:46;;;;;;;9.33;7.40;;;;;;;4.76;82.06;94763.16;1711479;83;21202;-54
2021/11/23 03:37:16;;;;;;;9.83;8.70;;;;;;;4.79;82.04;94761.58;1689193;83;20927;-55
2021/11/23 03:39:43;;;;;;;16.57;12.25;;;;;;;4.77;82.10;94760.62;1711805;82;21398;-55
2021/11/23 03:42:10;;;;;;;16.77;12.13;;;;;;;4.77;81.85;94760.62;1709545;83;20998;-54
2021/11/23 03:44:37;;;;;;;11.48;9.53;;;;;;;4.76;82.11;94759.08;1709894;83;21415;-55
2021/11/23 03:47:06;;;;;;;10.28;8.88;;;;;;;4.79;82.07;94763.70;1712124;83;20955;-55
2021/11/23 03:49:33;;;;;;;10.35;9.15;;;;;;;4.85;82.26;94771.63;1712756;82;21406;-59
2021/11/23 03:52:00;;;;;;;10.63;9.53;;;;;;;4.92;81.84;94778.33;1711972;83;21927;-56
2021/11/23 03:54:28;;;;;;;15.68;11.40;;;;;;;4.99;82.07;94776.86;1709679;83;20970;-55
2021/11/23 03:56:54;;;;;;;22.48;14.83;;;;;;;5.07;81.53;94767.99;1708113;83;20938;-55
2021/11/23 03:59:21;;;;;;;21.12;13.35;;;;;;;5.10;81.28;94762.50;1686681;83;21328;-55
2021/11/23 04:01:48;;;;;;;27.85;14.87;;;;;;;5.12;81.00;94768.92;1690992;83;21105;-60
2021/11/23 04:04:15;;;;;;;20.40;11.68;;;;;;;5.11;80.67;94765.41;1709922;83;21194;-56
2021/11/23 04:06:43;;;;;;;18.42;11.78;;;;;;;5.07;80.47;94770.14;1707010;82;21533;-54
2021/11/23 04:09:11;;;;;;;17.35;11.60;;;;;;;5.07;80.47;94772.08;1693043;83;20938;-55
2021/11/23 04:11:38;;;;;;;23.22;13.48;;;;;;;5.04;80.59;94770.19;1710714;83;21482;-55
2021/11/23 04:14:05;;;;;;;9.55;8.48;;;;;;;5.03;80.51;94771.37;1713782;83;21180;-55
2021/11/23 04:16:31;;;;;;;13.48;10.45;;;;;;;5.02;80.49;94773.34;1709790;83;21077;-55
2021/11/23 04:18:58;;;;;;;12.95;9.33;;;;;;;5.01;80.06;94773.13;1709517;83;21610;-55
2021/11/23 04:21:25;;;;;;;19.32;14.07;;;;;;;4.92;80.03;94771.52;1708714;82;21002;-54
2021/11/23 04:23:52;;;;;;;13.15;10.93;;;;;;;4.88;80.26;94769.44;1709348;83;21022;-54
2021/11/23 04:26:19;;;;;;;14.73;13.15;;;;;;;4.88;80.49;94770.80;1710113;83;21475;-56
2021/11/23 04:28:46;;;;;;;28.65;21.30;;;;;;;4.87;80.45;94780.16;1709274;83;21871;-54
2021/11/23 04:31:14;;;;;;;35.17;24.27;;;;;;;4.88;80.85;94772.73;1704559;83;21006;-54
2021/11/23 04:33:40;;;;;;;12.82;11.45;;;;;;;4.91;80.58;94780.09;1686999;83;21118;-55
2021/11/23 04:36:07;;;;;;;13.88;10.90;;;;;;;4.86;80.38;94774.53;1689977;83;21467;-54
2021/11/23 04:38:34;;;;;;;26.07;18.80;;;;;;;4.81;80.32;94783.14;1690002;85;20979;-55
2021/11/23 04:41:01;;;;;;;20.45;15.18;;;;;;;4.78;80.53;94785.93;1689753;85;21104;-56
2021/11/23 04:43:28;;;;;;;23.70;16.00;;;;;;;4.73;80.55;94787.15;1689713;85;21053;-56
2021/11/23 04:45:56;;;;;;;18.00;14.40;;;;;;;4.66;80.70;94791.33;1689813;85;20967;-56
2021/11/23 04:48:22;;;;;;;19.55;15.63;;;;;;;4.62;81.03;94790.58;1689828;85;21169;-55
2021/11/23 04:50:49;;;;;;;20.12;15.58;;;;;;;4.65;80.96;94795.23;1689822;85;21340;-55
2021/11/23 04:53:17;;;;;;;16.23;12.85;;;;;;;4.64;80.96;94797.75;1668241;85;22323;-54
2021/11/23 04:55:45;;;;;;;27.98;17.07;;;;;;;4.67;80.91;94796.97;1689691;85;20991;-55
2021/11/23 04:58:12;;;;;;;26.80;17.25;;;;;;;4.73;81.20;94793.17;1689835;85;21015;-55
2021/11/23 05:00:39;;;;;;;38.90;24.92;;;;;;;4.75;80.89;94807.94;1689804;85;21509;-56
2021/11/23 05:03:05;;;;;;;19.48;14.78;;;;;;;4.70;80.80;94800.23;1697212;83;21048;-56
2021/11/23 05:05:32;;;;;;;10.93;9.43;;;;;;;4.68;80.77;94803.95;1689637;83;22274;-56
2021/11/23 05:08:00;;;;;;;12.28;9.75;;;;;;;4.65;80.75;94815.67;1684374;84;21013;-55
2021/11/23 05:10:27;;;;;;;14.40;11.43;;;;;;;4.65;80.88;94814.31;1693925;83;20984;-56
2021/11/23 05:12:53;;;;;;;12.85;11.55;;;;;;;4.66;80.97;94822.67;1682998;83;20981;-55
2021/11/23 05:15:20;;;;;;;18.57;14.35;;;;;;;4.66;81.02;94821.30;1708135;84;21543;-55
2021/11/23 05:17:47;;;;;;;23.45;17.52;;;;;;;4.75;81.28;94822.94;1714182;83;21149;-57
2021/11/23 05:20:13;;;;;;;18.02;13.28;;;;;;;4.85;80.91;94826.13;1669480;83;21484;-56
2021/11/23 05:22:40;;;;;;;12.90;11.55;;;;;;;4.82;80.41;94821.47;1703887;83;20980;-56
2021/11/23 05:25:09;;;;;;;16.75;13.85;;;;;;;4.80;80.74;94829.28;1697759;83;20969;-56
2021/11/23 05:27:35;;;;;;;21.00;16.87;;;;;;;4.87;80.21;94828.42;1683045;83;21028;-57
2021/11/23 05:30:03;;;;;;;22.45;20.05;;;;;;;4.83;80.00;94831.19;1690075;83;21999;-56
2021/11/23 05:32:30;;;;;;;19.98;17.45;;;;;;;4.80;80.21;94835.34;1694070;83;21056;-64
2021/11/23 05:34:57;;;;;;;24.95;19.62;;;;;;;4.82;80.53;94841.91;1707289;83;21119;-55
2021/11/23 05:37:23;;;;;;;24.90;20.02;;;;;;;4.92;80.51;94841.02;1696161;83;21019;-56
2021/11/23 05:39:50;;;;;;;18.73;15.25;;;;;;;4.98;80.39;94842.10;1689106;83;21023;-56
2021/11/23 05:42:16;;;;;;;13.75;11.60;;;;;;;5.02;79.81;94840.13;1705741;83;21608;-56
2021/11/23 05:44:43;;;;;;;12.85;10.88;;;;;;;5.04;79.32;94840.48;1718500;83;21094;-54
2021/11/23 05:47:09;;;;;;;14.13;11.10;;;;;;;5.07;78.73;94845.11;1700052;83;20993;-55
2021/11/23 05:49:36;;;;;;;17.45;12.80;;;;;;;5.05;78.29;94839.88;1708531;83;20988;-55
2021/11/23 05:52:04;;;;;;;19.07;14.98;;;;;;;5.00;78.38;94857.45;1693490;83;20977;-55
2021/11/23 05:54:31;;;;;;;20.08;15.58;;;;;;;5.00;79.03;94856.09;1701080;83;21127;-55
2021/11/23 05:56:57;;;;;;;16.65;13.60;;;;;;;5.09;78.96;94863.20;1710287;83;21021;-55
2021/11/23 05:59:24;;;;;;;16.27;11.95;;;;;;;5.16;79.07;94864.45;1644700;84;21118;-55
2021/11/23 06:01:51;;;;;;;12.63;11.20;;;;;;;5.20;78.70;94865.20;1683157;83;21480;-55
2021/11/23 06:04:18;;;;;;;6.72;6.12;;;;;;;5.23;78.62;94859.51;1667953;83;21091;-58
2021/11/23 06:06:45;;;;;;;8.15;6.40;;;;;;;5.18;76.87;94857.25;1675166;83;21974;-55
2021/11/23 06:09:12;;;;;;;7.20;6.60;;;;;;;5.08;76.32;94853.48;1686172;83;21028;-56
2021/11/23 06:11:39;;;;;;;9.98;8.35;;;;;;;5.02;76.11;94856.48;1683601;83;21063;-57
2021/11/23 06:14:06;;;;;;;13.98;11.12;;;;;;;4.96;75.79;94859.46;1684518;83;20957;-56
2021/11/23 06:16:34;;;;;;;13.22;9.48;;;;;;;4.93;75.46;94863.61;1712943;83;20993;-57
2021/11/23 06:19:01;;;;;;;12.03;8.25;;;;;;;4.84;75.25;94862.74;1698316;83;21169;-56
2021/11/23 06:21:28;;;;;;;8.03;6.67;;;;;;;4.77;75.39;94860.08;1667275;84;21098;-56
2021/11/23 06:23:55;;;;;;;20.45;13.60;;;;;;;4.76;75.44;94870.05;1684230;83;21100;-58
2021/11/23 06:26:22;;;;;;;33.05;24.57;;;;;;;4.77;75.79;94872.95;1690770;83;21169;-56
2021/11/23 06:28:49;;;;;;;25.32;19.37;;;;;;;4.74;76.53;94869.08;1691779;83;21544;-57
2021/11/23 06:31:16;;;;;;;21.65;16.32;;;;;;;4.78;77.27;94879.95;1681449;83;21152;-58
2021/11/23 06:33:43;;;;;;;33.42;23.90;;;;;;;4.85;77.35;94882.00;1688425;83;21479;-58
2021/11/23 06:36:09;;;;;;;40.60;28.95;;;;;;;4.87;77.50;94882.36;1686755;83;21552;-58
2021/11/23 06:38:36;;;;;;;40.03;27.87;;;;;;;4.88;77.86;94879.82;1691608;83;21094;-58
2021/11/23 06:41:03;;;;;;;22.80;16.15;;;;;;;4.93;77.91;94883.45;1692679;83;21532;-56
2021/11/23 06:43:30;;;;;;;27.87;20.20;;;;;;;4.87;77.16;94882.36;1682835;83;21223;-55
2021/11/23 06:45:56;;;;;;;36.75;25.65;;;;;;;4.76;76.99;94885.78;1658330;83;21145;-57
2021/11/23 06:48:23;;;;;;;76.07;44.08;;;;;;;4.68;77.50;94884.33;1687882;83;21065;-58
2021/11/23 06:50:52;;;;;;;33.60;20.00;;;;;;;4.70;77.83;94891.51;1677551;83;21157;-56
2021/11/23 06:53:18;;;;;;;52.70;28.17;;;;;;;4.76;77.08;94896.69;1687121;83;21738;-57
2021/11/23 06:55:46;;;;;;;42.17;26.60;;;;;;;4.78;76.11;94899.02;1670121;83;21332;-59
2021/11/23 06:58:13;;;;;;;22.35;16.07;;;;;;;4.78;75.95;94903.86;1676160;83;21013;-66
2021/11/23 07:00:40;;;;;;;31.50;18.55;;;;;;;4.83;75.55;94897.20;1661948;83;22034;-64
2021/11/23 07:03:08;;;;;;;15.30;12.37;;;;;;;4.84;75.48;94902.26;1681343;83;21001;-61
2021/11/23 07:05:35;;;;;;;19.50;14.58;;;;;;;4.81;75.50;94903.05;1688509;83;21071;-60
2021/11/23 07:08:03;;;;;;;14.33;11.28;;;;;;;4.74;75.38;94904.50;1682755;82;21177;-64
2021/11/23 07:10:32;;;;;;;12.30;9.88;;;;;;;4.70;75.23;94908.43;1680062;83;21008;-61
2021/11/23 07:13:00;;;;;;;11.03;7.67;;;;;;;4.67;75.03;94914.12;1675770;83;21024;-66
2021/11/23 07:15:27;;;;;;;12.75;9.85;;;;;;;4.63;74.88;94903.83;1675781;82;21000;-63
2021/11/23 07:17:54;;;;;;;14.18;9.83;;;;;;;4.60;74.90;94911.45;1672371;83;21058;-66
2021/11/23 07:20:21;;;;;;;15.40;12.75;;;;;;;4.65;75.05;94907.52;1658713;83;21137;-68
2021/11/23 07:22:48;;;;;;;12.58;9.95;;;;;;;4.74;74.97;94909.16;1669891;83;21082;-60
2021/11/23 07:25:15;;;;;;;11.50;8.85;;;;;;;4.80;74.85;94899.38;1664496;83;20899;-63
2021/11/23 07:27:43;;;;;;;11.10;9.78;;;;;;;4.86;74.12;94899.90;1680061;83;21083;-60
2021/11/23 07:30:12;;;;;;;19.85;12.70;;;;;;;4.83;73.81;94910.83;1671500;82;21597;-62
2021/11/23 07:32:41;;;;;;;16.90;11.57;;;;;;;4.77;73.93;94915.94;1657939;83;21057;-66
2021/11/23 07:35:08;;;;;;;13.65;9.95;;;;;;;4.77;74.37;94906.41;1669666;83;22224;-66
2021/11/23 07:37:41;;;;;;;12.33;9.58;;;;;;;4.86;74.27;94908.08;1663816;83;21095;-64
2021/11/23 07:40:10;;;;;;;12.98;11.55;;;;;;;4.93;74.08;94908.59;1673356;83;21510;-59
2021/11/23 07:42:38;;;;;;;12.53;10.55;;;;;;;4.98;74.06;94912.98;1684526;83;21000;-61
2021/11/23 07:45:06;;;;;;;18.87;14.53;;;;;;;5.02;74.09;94915.09;1676235;83;21102;-60
2021/11/23 07:47:35;;;;;;;15.72;13.78;;;;;;;5.08;74.13;94923.00;1673901;82;21638;-67
2021/11/23 07:50:03;;;;;;;18.95;13.55;;;;;;;5.16;74.43;94921.72;1659277;83;21008;-64
2021/11/23 07:52:31;;;;;;;20.45;13.53;;;;;;;5.28;74.27;94928.02;1669656;83;21485;-59
2021/11/23 07:54:58;;;;;;;15.43;12.05;;;;;;;5.35;73.86;94919.73;1653191;83;22092;-62
2021/11/23 07:57:25;;;;;;;15.93;12.25;;;;;;;5.37;73.67;94924.18;1679282;82;21158;-63
2021/11/23 07:59:52;;;;;;;23.02;15.40;;;;;;;5.35;73.54;94927.91;1671475;83;21545;-66
2021/11/23 08:02:18;;;;;;;33.90;19.80;;;;;;;5.36;73.86;94933.55;1645593;83;21506;-66
2021/11/23 08:04:45;;;;;;;27.95;18.80;;;;;;;5.46;73.75;94935.38;1680484;83;21016;-64
2021/11/23 08:07:12;;;;;;;23.92;15.88;;;;;;;5.49;73.56;94935.92;1679791;82;21065;-64
2021/11/23 08:09:38;;;;;;;25.48;15.15;;;;;;;5.50;73.41;94934.73;1688122;83;22598;-66
2021/11/23 08:12:06;;;;;;;42.40;25.43;;;;;;;5.51;72.93;94943.10;1676236;83;21220;-66
2021/11/23 08:14:34;;;;;;;19.17;12.80;;;;;;;5.61;73.00;94935.38;1662458;83;22411;-60
2021/11/23 08:17:01;;;;;;;15.48;11.63;;;;;;;5.70;71.78;94938.36;1680417;82;21092;-63
2021/11/23 08:19:30;;;;;;;17.02;12.60;;;;;;;5.72;71.18;94940.87;1680586;82;21103;-65
2021/11/23 08:21:56;;;;;;;14.80;11.10;;;;;;;5.76;71.49;94945.68;1659849;83;22541;-61
2021/11/23 08:24:23;;;;;;;13.90;11.25;;;;;;;5.73;72.14;94947.08;1682631;83;21129;-64
2021/11/23 08:26:50;;;;;;;19.00;13.62;;;;;;;5.68;72.66;94953.01;1686017;82;21066;-66
2021/11/23 08:29:17;;;;;;;32.93;20.52;;;;;;;5.62;73.02;94958.14;1667028;83;21013;-67
2021/11/23 08:31:44;;;;;;;24.60;16.82;;;;;;;5.57;72.69;94947.70;1684947;83;21125;-66
2021/11/23 08:34:12;;;;;;;25.35;18.27;;;;;;;5.58;72.19;94949.84;1657180;83;21486;-69
2021/11/23 08:40:38;;;;;;;13.48;11.75;;;;;;;5.56;72.75;94950.82;1675279;83;21917;-61
2021/11/23 08:43:08;;;;;;;15.20;12.95;;;;;;;5.51;73.40;94948.56;1647902;84;21039;-64
2021/11/23 08:45:36;;;;;;;21.60;16.12;;;;;;;5.48;73.46;94946.66;1672437;83;21037;-68
2021/11/23 08:48:03;;;;;;;23.55;19.25;;;;;;;5.47;73.80;94950.56;1671950;83;21100;-70
2021/11/23 08:50:29;;;;;;;18.37;15.32;;;;;;;5.54;74.05;94951.25;1684421;83;22127;-61
2021/11/23 08:52:58;;;;;;;12.78;10.75;;;;;;;5.62;73.84;94956.02;1663184;82;21129;-65
2021/11/23 08:55:26;;;;;;;15.53;12.10;;;;;;;5.63;73.01;94953.48;1674450;83;22247;-66
2021/11/23 08:57:54;;;;;;;17.50;12.93;;;;;;;5.57;72.16;94953.76;1671107;82;21486;-61
2021/11/23 09:00:22;;;;;;;19.00;14.05;;;;;;;5.50;71.93;94953.84;1662727;83;21115;-72
2021/11/23 09:02:51;;;;;;;14.35;12.07;;;;;;;5.44;72.11;94952.75;1679522;83;21019;-68
2021/11/23 09:05:21;;;;;;;14.40;11.88;;;;;;;5.45;72.36;94954.30;1680197;83;21038;-67
2021/11/23 09:07:48;;;;;;;19.75;13.40;;;;;;;5.47;72.47;94946.47;1677391;82;21578;-66
2021/11/23 09:10:21;;;;;;;26.52;17.12;;;;;;;5.52;72.04;94944.64;1681941;83;21170;-64
2021/11/23 09:12:50;;;;;;;31.10;18.57;;;;;;;5.56;71.38;94948.88;1679455;82;21125;-68
2021/11/23 09:15:17;;;;;;;40.40;22.27;;;;;;;5.59;71.44;94950.03;1670839;83;21748;-69
2021/11/23 09:17:44;;;;;;;50.67;30.65;;;;;;;5.64;70.97;94942.74;1658224;82;21038;-67
2021/11/23 09:20:11;;;;;;;65.03;38.63;;;;;;;5.67;70.91;94939.97;1674474;83;21087;-69
2021/11/23 09:22:40;;;;;;;57.65;34.03;;;;;;;5.72;71.11;94940.08;1681255;83;21162;-70
2021/11/23 09:25:10;;;;;;;50.08;30.37;;;;;;;5.71;71.00;94939.91;1676886;83;21184;-62
2021/11/23 09:27:37;;;;;;;65.03;34.18;;;;;;;5.64;70.96;94934.55;1680679;82;21014;-66
2021/11/23 09:30:08;;;;;;;54.40;32.05;;;;;;;5.60;71.14;94937.33;1671696;83;21025;-60
2021/11/23 09:32:35;;;;;;;61.42;35.60;;;;;;;5.66;71.72;94944.46;1678890;82;21038;-70
2021/11/23 09:35:02;;;;;;;45.08;27.00;;;;;;;5.74;71.28;94945.90;1678414;82;21163;-63
2021/11/23 09:37:29;;;;;;;32.78;20.50;;;;;;;5.73;70.80;94938.89;1680624;83;21578;-70
2021/11/23 09:39:56;;;;;;;40.20;24.50;;;;;;;5.67;70.49;94948.16;1675767;82;21054;-64
2021/11/23 09:42:23;;;;;;;26.25;16.95;;;;;;;5.63;70.50;94941.95;1679575;83;21539;-67
2021/11/23 09:44:51;;;;;;;24.75;15.45;;;;;;;5.59;70.25;94941.84;1679888;83;21131;-71
2021/11/23 09:47:18;;;;;;;35.10;22.90;;;;;;;5.56;69.89;94948.09;1691170;82;21021;-68
2021/11/23 09:49:44;;;;;;;60.12;33.70;;;;;;;5.65;69.96;94950.53;1681671;82;22152;-64
2021/11/23 09:52:11;;;;;;;39.58;23.60;;;;;;;5.78;70.18;94943.92;1670417;83;21076;-69
2021/11/23 09:54:41;;;;;;;29.87;18.15;;;;;;;5.94;70.23;94937.28;1672956;83;21034;-63
2021/11/23 09:57:08;;;;;;;25.92;18.10;;;;;;;6.05;69.95;94944.12;1687146;83;22412;-63
2021/11/23 09:59:35;;;;;;;15.48;13.13;;;;;;;6.12;70.05;94940.52;1681731;83;22309;-69
2021/11/23 10:02:03;;;;;;;21.93;15.60;;;;;;;6.20;70.08;94931.02;1679967;83;21040;-67
2021/11/23 10:04:30;;;;;;;24.32;16.65;;;;;;;6.20;70.24;94930.44;1688090;82;21710;-69
2021/11/23 10:07:07;;;;;;;15.85;10.95;;;;;;;6.20;69.99;94931.02;1653766;83;21014;-68
2021/11/23 10:09:43;;;;;;;17.55;11.95;;;;;;;6.24;69.69;94930.36;1682726;83;21017;-61
2021/11/23 10:12:22;;;;;;;14.55;11.85;;;;;;;6.34;69.20;94929.43;1678242;83;21025;-69
2021/11/23 10:15:19;;;;;;;16.65;12.47;;;;;;;6.42;68.51;94918.55;1662083;83;21150;-66
2021/11/23 10:17:48;;;;;;;12.47;11.15;;;;;;;6.49;67.92;94918.45;1688112;83;21003;-62
2021/11/23 10:20:34;;;;;;;15.72;11.95;;;;;;;6.52;67.33;94914.27;1671635;82;21082;-62
2021/11/23 10:23:15;;;;;;;12.43;10.32;;;;;;;6.58;67.46;94904.42;1682310;83;21013;-66
2021/11/23 10:25:44;;;;;;;19.87;13.62;;;;;;;6.69;67.31;94906.96;1683418;82;21052;-69
2021/11/23 10:28:11;;;;;;;15.25;11.97;;;;;;;6.73;67.21;94909.78;1665926;83;21111;-64
2021/11/23 10:30:40;;;;;;;13.93;11.45;;;;;;;6.83;67.03;94908.83;1680518;83;21057;-68
2021/11/23 10:33:07;;;;;;;14.87;11.45;;;;;;;6.77;66.64;94899.58;1662568;83;22111;-63
2021/11/23 10:35:37;;;;;;;11.40;10.20;;;;;;;6.70;66.62;94901.67;1678769;83;22210;-71
2021/11/23 10:38:07;;;;;;;10.75;9.03;;;;;;;6.75;66.71;94895.71;1684076;82;21029;-67
2021/11/23 10:40:34;;;;;;;11.45;9.60;;;;;;;6.72;66.46;94889.72;1681495;83;22240;-71
2021/11/23 10:43:04;;;;;;;12.35;9.93;;;;;;;6.77;66.49;94888.64;1668774;83;21438;-65
2021/11/23 10:45:40;;;;;;;10.08;9.05;;;;;;;6.80;66.66;94882.34;1667623;83;22255;-70
2021/11/23 10:48:08;;;;;;;11.60;10.20;;;;;;;6.86;66.86;94888.09;1666285;83;21033;-65
2021/11/23 10:50:35;;;;;;;14.35;10.15;;;;;;;6.89;66.53;94887.25;1670795;83;21111;-72
2021/11/23 10:53:16;;;;;;;15.32;12.07;;;;;;;7.01;66.08;94881.13;1656949;83;21200;-69
2021/11/23 10:55:44;;;;;;;13.08;10.53;;;;;;;7.08;65.70;94879.82;1653906;84;21032;-73
2021/11/23 10:58:12;;;;;;;12.68;11.28;;;;;;;7.29;65.85;94884.86;1670338;83;22311;-67
2021/11/23 11:00:42;;;;;;;15.00;11.95;;;;;;;7.48;65.39;94883.30;1670529;83;21043;-67
2021/11/23 11:03:10;;;;;;;14.38;12.53;;;;;;;7.62;65.28;94876.12;1683586;83;21056;-64
2021/11/23 11:05:41;;;;;;;49.13;31.50;;;;;;;7.85;64.67;94871.91;1677633;83;21104;-64
2021/11/23 11:08:09;;;;;;;78.02;45.03;;;;;;;8.08;63.80;94871.14;1683115;82;21073;-69
2021/11/23 11:10:37;;;;;;;63.08;38.67;;;;;;;8.29;63.38;94870.64;1672999;83;21003;-69
2021/11/23 11:13:07;;;;;;;79.07;50.20;;;;;;;8.44;62.27;94867.73;1672601;83;21024;-66
2021/11/23 11:15:38;;;;;;;31.37;23.50;;;;;;;8.55;61.46;94862.75;1673562;83;21080;-68
2021/11/23 11:18:11;;;;;;;31.37;24.50;;;;;;;8.60;60.48;94866.34;1665581;83;21205;-71
2021/11/23 11:20:50;;;;;;;16.62;13.18;;;;;;;8.70;60.18;94873.53;1686316;82;21070;-70
2021/11/23 11:23:26;;;;;;;16.97;15.13;;;;;;;8.93;60.08;94859.58;1679534;83;21056;-72
2021/11/23 11:26:22;;;;;;;14.35;12.70;;;;;;;9.05;58.80;94860.98;1680082;82;21949;-67
2021/11/23 11:28:52;;;;;;;16.00;13.15;;;;;;;8.93;57.69;94873.30;1666874;82;21054;-62
2021/11/23 11:31:41;;;;;;;13.55;10.45;;;;;;;8.71;58.60;94870.17;1676338;82;21159;-68
2021/11/23 11:34:39;;;;;;;11.40;8.85;;;;;;;8.64;59.04;94877.98;1673788;83;21118;-74
2021/11/23 11:37:11;;;;;;;12.23;9.83;;;;;;;8.42;59.33;94876.98;1677195;82;21519;-64